• Join FlightAware (Why Join?)
  • Login
  • US Flag 
Rudolph Flight #1: Arrived! 
01:02AM EST


 

Airport Tracker/Info


-or-


 

Live Flight TrackerFlight Track Log ✈ EJA396 ✈ 02-Aug-2013 ✈ KSMO - KSFO

Flight Track Log - Related Links

Times and Time Zones

All times are in EDT time to prevent confusion due to time zone crossing. See the EJA396 flight status page for this flight to view local times or setup timezone preferences in your user account.

Time Position Orientation Groundspeed Altitude Reporting Facility
EDT Latitude Longitude Course Direction KTS MPH feet Rate Location/Type
04:31PM 34.0000 -118.5000 266° West 209 241 2,900  Level Southern California TRACON
04:32PM 33.9972 -118.5467 266° West 213 245 3,000 1,500 Climbing Los Angeles Center
04:33PM 33.9664 -118.6203 243° Southwest 232 267 5,600 2,700 Climbing Los Angeles Center
04:34PM 33.9414 -118.7000 249° West 269 310 8,700 3,240 Climbing Los Angeles Center
04:35PM 33.9303 -118.7967 262° West 281 323 12,300 2,700 Climbing Los Angeles Center
04:36PM 33.9236 -118.9089 266° West 345 397 14,300 2,220 Climbing Los Angeles Center
04:37PM 33.9811 -119.0089 305° West 370 426 17,000 2,460 Climbing Los Angeles Center
04:38PM 34.0481 -119.1053 310° West 375 432 19,500 2,160 Climbing Los Angeles Center
04:39PM 34.1167 -119.2058 310° West 388 447 21,500 2,100 Climbing Los Angeles Center
04:40PM 34.2033 -119.3292 310° West 404 465 23,900 1,920 Climbing Los Angeles Center
04:41PM 34.2783 -119.4364 310° West 416 479 25,900 1,740 Climbing Los Angeles Center
04:42PM 34.3689 -119.5717 309° West 431 496 27,900 960 Climbing Los Angeles Center
04:43PM 34.4517 -119.6889 311° West 455 524 28,000  Climbing Los Angeles Center
04:44PM 34.5375 -119.8050 312° West 463 533 28,000  Level Los Angeles Center
04:45PM 34.6453 -119.9192 319° Northwest 468 539 28,000  Level Los Angeles Center
04:46PM 34.7428 -120.0267 318° Northwest 471 542 28,000  Level Los Angeles Center
04:47PM 34.8508 -120.1422 319° Northwest 478 550 28,000  Level Los Angeles Center
04:48PM 34.9458 -120.2489 317° Northwest 470 541 28,000  Level Los Angeles Center
04:50PM 35.0406 -120.3522 318° Northwest 463 533 28,000  Level Los Angeles Center
04:51PM 35.1339 -120.4561 318° Northwest 461 531 28,000  Level Los Angeles Center
04:52PM 35.2461 -120.5814 318° Northwest 458 527 28,000  Level Los Angeles Center
04:53PM 35.3411 -120.6861 318° Northwest 462 532 28,000  Level Los Angeles Center
04:54PM 35.4347 -120.7928 317° Northwest 462 532 28,000  Level Los Angeles Center
04:55PM 35.5289 -120.8994 317° Northwest 463 533 28,000  Level Los Angeles Center
04:56PM 35.6331 -120.9972 323° Northwest 463 533 28,000  Level Los Angeles Center
04:57PM 35.7389 -121.0878 325° Northwest 461 531 28,000  Level Los Angeles Center
04:58PM 35.8644 -121.1956 325° Northwest 459 528 28,000  Level Los Angeles Center
04:59PM 36.0092 -121.3186 325° Northwest 452 520 28,000  Level Oakland Center
05:00PM 36.1106 -121.4078 325° Northwest 450 518 28,000  Level Oakland Center
05:01PM 36.2128 -121.4947 326° Northwest 447 514 28,000  Level Oakland Center
05:02PM 36.3147 -121.5833 325° Northwest 447 514 28,000  Level Oakland Center
05:03PM 36.4372 -121.6911 325° Northwest 450 518 28,000 -1,260 Level Oakland Center
05:04PM 36.5392 -121.7789 325° Northwest 449 517 25,400 -2,760 Descending Oakland Center
05:05PM 36.6331 -121.8647 324° Northwest 433 498 22,400 -2,760 Descending Oakland Center
05:06PM 36.7228 -121.9450 324° Northwest 403 464 19,800 -2,340 Descending Oakland Center
05:08PM 36.8228 -121.9867 342° North 386 444 17,600 -2,220 Descending Oakland Center
05:09PM 36.9297 -122.0136 349° North 389 448 15,300 -2,460 Descending Oakland Center
05:10PM 37.0528 -122.0472 348° North 374 430 12,600 -2,340 Descending Oakland Center
05:11PM 37.1433 -122.0689 349° North 333 383 10,600 -1,440 Descending Oakland Center
05:12PM 37.2228 -122.0903 348° North 296 341 9,700 -1,260 Descending Oakland Center
05:13PM 37.3011 -122.1111 348° North 290 334 8,100 -1,260 Descending Oakland Center
05:14PM 37.3778 -122.1317 348° North 284 327 7,200 -1,320 Descending Oakland Center
05:15PM 37.4519 -122.1100 13° North 278 320 5,400 -1,080 Descending Oakland Center
05:16PM 37.5108 -122.0900 15° North 234 269 5,000 -540 Descending Oakland Center
05:17PM 37.5481 -122.1425 312° West 175 201 4,400 -660 Descending Oakland Center
05:18PM 37.5639 -122.1950 291° West 166 191 3,700 -840 Descending Oakland Center
05:19PM 37.5667 -122.2500 274° West 157 181 2,800 -1,020 Descending Northern Cal TRACON
05:20PM 37.5833 -122.2833 302° West 129 148 1,700 -1,080 Descending Northern Cal TRACON
05:21PM 37.6000 -122.3333 293° West 122 140 700 -1,020 Descending Northern Cal TRACON
05:24PM 37.6167 -122.3667 322° Northwest  Level FlightAware Approximate